sensor_id;sensor_type;location;lat;lon;timestamp;temperature;humidity
68257;DHT22;55069;51.568;4.656;2023-08-20T00:00:35;19.74;80.43
68257;DHT22;55069;51.568;4.656;2023-08-20T00:03:12;19.67;80.45
68257;DHT22;55069;51.568;4.656;2023-08-20T00:05:38;19.64;80.55
68257;DHT22;55069;51.568;4.656;2023-08-20T00:08:04;19.63;80.68
68257;DHT22;55069;51.568;4.656;2023-08-20T00:10:30;19.66;80.66
68257;DHT22;55069;51.568;4.656;2023-08-20T00:12:56;19.70;80.55
68257;DHT22;55069;51.568;4.656;2023-08-20T00:15:22;19.74;80.56
68257;DHT22;55069;51.568;4.656;2023-08-20T00:17:52;19.81;80.52
68257;DHT22;55069;51.568;4.656;2023-08-20T00:20:18;19.85;79.97
68257;DHT22;55069;51.568;4.656;2023-08-20T00:22:44;19.89;79.83
68257;DHT22;55069;51.568;4.656;2023-08-20T00:25:11;19.96;79.78
68257;DHT22;55069;51.568;4.656;2023-08-20T00:27:39;19.99;79.37
68257;DHT22;55069;51.568;4.656;2023-08-20T00:30:05;20.02;79.31
68257;DHT22;55069;51.568;4.656;2023-08-20T00:32:31;20.01;79.62
68257;DHT22;55069;51.568;4.656;2023-08-20T00:34:56;20.01;79.42
68257;DHT22;55069;51.568;4.656;2023-08-20T00:37:22;20.01;79.05
68257;DHT22;55069;51.568;4.656;2023-08-20T00:39:48;19.98;79.29
68257;DHT22;55069;51.568;4.656;2023-08-20T00:42:13;19.94;79.42
68257;DHT22;55069;51.568;4.656;2023-08-20T00:44:40;19.88;79.36
68257;DHT22;55069;51.568;4.656;2023-08-20T00:47:10;19.88;79.66
68257;DHT22;55069;51.568;4.656;2023-08-20T00:49:36;19.86;79.50
68257;DHT22;55069;51.568;4.656;2023-08-20T00:52:02;19.85;79.64
68257;DHT22;55069;51.568;4.656;2023-08-20T00:54:31;19.78;80.14
68257;DHT22;55069;51.568;4.656;2023-08-20T00:56:59;19.73;80.13
68257;DHT22;55069;51.568;4.656;2023-08-20T00:59:25;19.67;80.54
68257;DHT22;55069;51.568;4.656;2023-08-20T01:01:51;19.66;80.44
68257;DHT22;55069;51.568;4.656;2023-08-20T01:04:16;19.61;80.77
68257;DHT22;55069;51.568;4.656;2023-08-20T01:12:17;19.45;81.37
68257;DHT22;55069;51.568;4.656;2023-08-20T01:14:44;19.41;81.40
68257;DHT22;55069;51.568;4.656;2023-08-20T01:17:10;19.36;81.70
68257;DHT22;55069;51.568;4.656;2023-08-20T01:19:35;19.24;81.83
68257;DHT22;55069;51.568;4.656;2023-08-20T01:25:13;19.16;82.53
68257;DHT22;55069;51.568;4.656;2023-08-20T01:30:42;19.19;82.25
68257;DHT22;55069;51.568;4.656;2023-08-20T01:33:09;19.18;82.55
68257;DHT22;55069;51.568;4.656;2023-08-20T01:35:36;19.15;82.65
68257;DHT22;55069;51.568;4.656;2023-08-20T01:38:02;19.18;82.45
68257;DHT22;55069;51.568;4.656;2023-08-20T01:40:29;19.16;82.66
68257;DHT22;55069;51.568;4.656;2023-08-20T01:42:54;19.26;82.29
68257;DHT22;55069;51.568;4.656;2023-08-20T01:45:20;19.24;82.47
68257;DHT22;55069;51.568;4.656;2023-08-20T01:47:47;19.22;82.00
68257;DHT22;55069;51.568;4.656;2023-08-20T01:50:14;19.20;81.99
68257;DHT22;55069;51.568;4.656;2023-08-20T01:52:39;19.19;82.22
68257;DHT22;55069;51.568;4.656;2023-08-20T01:55:05;19.16;82.07
68257;DHT22;55069;51.568;4.656;2023-08-20T01:57:32;19.15;82.21
68257;DHT22;55069;51.568;4.656;2023-08-20T01:59:58;19.15;82.13
68257;DHT22;55069;51.568;4.656;2023-08-20T02:02:24;19.10;82.31
68257;DHT22;55069;51.568;4.656;2023-08-20T02:04:50;19.08;82.14
68257;DHT22;55069;51.568;4.656;2023-08-20T02:07:16;18.98;82.43
68257;DHT22;55069;51.568;4.656;2023-08-20T02:09:42;18.85;82.64
68257;DHT22;55069;51.568;4.656;2023-08-20T02:12:07;18.76;83.08
68257;DHT22;55069;51.568;4.656;2023-08-20T02:14:34;18.67;83.55
68257;DHT22;55069;51.568;4.656;2023-08-20T02:17:03;18.58;83.82
68257;DHT22;55069;51.568;4.656;2023-08-20T02:19:29;18.45;84.10
68257;DHT22;55069;51.568;4.656;2023-08-20T02:21:55;18.37;84.07
68257;DHT22;55069;51.568;4.656;2023-08-20T02:24:20;18.33;84.37
68257;DHT22;55069;51.568;4.656;2023-08-20T02:26:46;18.24;84.62
68257;DHT22;55069;51.568;4.656;2023-08-20T02:29:12;18.20;84.89
68257;DHT22;55069;51.568;4.656;2023-08-20T02:31:37;18.16;85.03
68257;DHT22;55069;51.568;4.656;2023-08-20T02:34:03;18.10;85.17
68257;DHT22;55069;51.568;4.656;2023-08-20T02:36:28;18.05;85.46
68257;DHT22;55069;51.568;4.656;2023-08-20T02:38:54;17.99;85.42
68257;DHT22;55069;51.568;4.656;2023-08-20T02:41:20;18.00;85.37
68257;DHT22;55069;51.568;4.656;2023-08-20T02:43:46;17.96;85.52
68257;DHT22;55069;51.568;4.656;2023-08-20T02:46:12;17.92;85.55
68257;DHT22;55069;51.568;4.656;2023-08-20T02:48:37;17.85;85.59
68257;DHT22;55069;51.568;4.656;2023-08-20T02:51:03;17.79;85.91
68257;DHT22;55069;51.568;4.656;2023-08-20T02:53:28;17.76;86.06
68257;DHT22;55069;51.568;4.656;2023-08-20T02:55:54;17.71;86.41
68257;DHT22;55069;51.568;4.656;2023-08-20T02:58:21;17.62;86.43
68257;DHT22;55069;51.568;4.656;2023-08-20T03:00:47;17.59;86.51
68257;DHT22;55069;51.568;4.656;2023-08-20T03:03:13;17.55;86.72
68257;DHT22;55069;51.568;4.656;2023-08-20T03:05:41;17.49;86.86
68257;DHT22;55069;51.568;4.656;2023-08-20T03:08:07;17.47;86.92
68257;DHT22;55069;51.568;4.656;2023-08-20T03:10:33;17.49;86.77
68257;DHT22;55069;51.568;4.656;2023-08-20T03:13:00;17.45;86.70
68257;DHT22;55069;51.568;4.656;2023-08-20T03:15:27;17.45;86.93
68257;DHT22;55069;51.568;4.656;2023-08-20T03:17:53;17.49;87.16
68257;DHT22;55069;51.568;4.656;2023-08-20T03:20:18;17.61;86.81
68257;DHT22;55069;51.568;4.656;2023-08-20T03:22:44;17.72;86.43
68257;DHT22;55069;51.568;4.656;2023-08-20T03:25:09;17.78;86.26
68257;DHT22;55069;51.568;4.656;2023-08-20T03:27:35;17.81;86.23
68257;DHT22;55069;51.568;4.656;2023-08-20T03:30:01;17.81;85.88
68257;DHT22;55069;51.568;4.656;2023-08-20T03:32:27;17.83;85.71
68257;DHT22;55069;51.568;4.656;2023-08-20T03:34:53;17.82;85.70
68257;DHT22;55069;51.568;4.656;2023-08-20T03:37:21;17.81;86.17
68257;DHT22;55069;51.568;4.656;2023-08-20T03:39:48;17.75;85.91
68257;DHT22;55069;51.568;4.656;2023-08-20T03:42:13;17.72;86.00
68257;DHT22;55069;51.568;4.656;2023-08-20T03:44:39;17.66;86.49
68257;DHT22;55069;51.568;4.656;2023-08-20T03:47:04;17.58;86.49
68257;DHT22;55069;51.568;4.656;2023-08-20T03:49:30;17.52;86.78
68257;DHT22;55069;51.568;4.656;2023-08-20T03:51:56;17.45;86.73
68257;DHT22;55069;51.568;4.656;2023-08-20T03:54:21;17.39;86.96
68257;DHT22;55069;51.568;4.656;2023-08-20T03:56:47;17.34;87.08
68257;DHT22;55069;51.568;4.656;2023-08-20T03:59:12;17.30;87.10
68257;DHT22;55069;51.568;4.656;2023-08-20T04:01:38;17.26;87.36
68257;DHT22;55069;51.568;4.656;2023-08-20T04:04:04;17.16;87.65
68257;DHT22;55069;51.568;4.656;2023-08-20T04:06:30;17.11;87.75
68257;DHT22;55069;51.568;4.656;2023-08-20T04:08:55;17.06;87.96
68257;DHT22;55069;51.568;4.656;2023-08-20T04:11:21;17.09;88.44
68257;DHT22;55069;51.568;4.656;2023-08-20T04:13:46;17.03;88.14
68257;DHT22;55069;51.568;4.656;2023-08-20T04:16:12;16.99;88.17
68257;DHT22;55069;51.568;4.656;2023-08-20T04:18:39;16.99;88.30
68257;DHT22;55069;51.568;4.656;2023-08-20T04:21:05;16.94;88.17
68257;DHT22;55069;51.568;4.656;2023-08-20T04:23:30;16.90;88.18
68257;DHT22;55069;51.568;4.656;2023-08-20T04:25:56;16.86;88.50
68257;DHT22;55069;51.568;4.656;2023-08-20T04:28:21;16.77;88.50
68257;DHT22;55069;51.568;4.656;2023-08-20T04:30:47;16.79;88.62
68257;DHT22;55069;51.568;4.656;2023-08-20T04:33:14;16.73;88.78
68257;DHT22;55069;51.568;4.656;2023-08-20T04:35:43;16.68;88.70
68257;DHT22;55069;51.568;4.656;2023-08-20T04:38:08;16.68;88.62
68257;DHT22;55069;51.568;4.656;2023-08-20T04:40:34;16.63;88.69
68257;DHT22;55069;51.568;4.656;2023-08-20T04:42:59;16.61;88.88
68257;DHT22;55069;51.568;4.656;2023-08-20T04:45:25;16.65;88.95
68257;DHT22;55069;51.568;4.656;2023-08-20T04:47:51;16.61;88.94
68257;DHT22;55069;51.568;4.656;2023-08-20T04:50:16;16.61;88.93
68257;DHT22;55069;51.568;4.656;2023-08-20T04:52:42;16.61;88.81
68257;DHT22;55069;51.568;4.656;2023-08-20T04:55:08;16.62;88.83
68257;DHT22;55069;51.568;4.656;2023-08-20T04:57:34;16.62;88.96
68257;DHT22;55069;51.568;4.656;2023-08-20T05:00:01;16.61;88.97
68257;DHT22;55069;51.568;4.656;2023-08-20T05:02:30;16.58;88.79
68257;DHT22;55069;51.568;4.656;2023-08-20T05:04:59;16.58;88.55
68257;DHT22;55069;51.568;4.656;2023-08-20T05:07:24;16.59;88.63
68257;DHT22;55069;51.568;4.656;2023-08-20T05:09:50;16.58;88.56
68257;DHT22;55069;51.568;4.656;2023-08-20T05:12:15;16.59;88.88
68257;DHT22;55069;51.568;4.656;2023-08-20T05:14:41;16.55;88.81
68257;DHT22;55069;51.568;4.656;2023-08-20T05:17:06;16.53;89.20
68257;DHT22;55069;51.568;4.656;2023-08-20T05:19:32;16.48;89.24
68257;DHT22;55069;51.568;4.656;2023-08-20T05:21:58;16.45;89.13
68257;DHT22;55069;51.568;4.656;2023-08-20T05:24:27;16.45;88.99
68257;DHT22;55069;51.568;4.656;2023-08-20T05:29:32;16.45;88.86
68257;DHT22;55069;51.568;4.656;2023-08-20T05:31:58;16.45;88.67
68257;DHT22;55069;51.568;4.656;2023-08-20T05:34:24;16.42;88.85
68257;DHT22;55069;51.568;4.656;2023-08-20T05:36:50;16.45;88.93
68257;DHT22;55069;51.568;4.656;2023-08-20T05:39:15;16.48;89.14
68257;DHT22;55069;51.568;4.656;2023-08-20T05:41:41;16.47;89.19
68257;DHT22;55069;51.568;4.656;2023-08-20T05:44:06;16.55;88.91
68257;DHT22;55069;51.568;4.656;2023-08-20T05:46:32;16.58;88.72
68257;DHT22;55069;51.568;4.656;2023-08-20T05:48:58;16.58;88.87
68257;DHT22;55069;51.568;4.656;2023-08-20T05:51:25;16.61;88.78
68257;DHT22;55069;51.568;4.656;2023-08-20T05:53:51;16.63;88.72
68257;DHT22;55069;51.568;4.656;2023-08-20T05:56:16;16.66;89.07
68257;DHT22;55069;51.568;4.656;2023-08-20T05:58:42;16.68;88.63
68257;DHT22;55069;51.568;4.656;2023-08-20T06:01:07;16.73;88.56
68257;DHT22;55069;51.568;4.656;2023-08-20T06:03:33;16.76;88.73
68257;DHT22;55069;51.568;4.656;2023-08-20T06:05:58;16.77;88.49
68257;DHT22;55069;51.568;4.656;2023-08-20T06:08:24;16.82;88.38
68257;DHT22;55069;51.568;4.656;2023-08-20T06:10:50;16.87;88.21
68257;DHT22;55069;51.568;4.656;2023-08-20T06:13:16;16.94;88.14
68257;DHT22;55069;51.568;4.656;2023-08-20T06:15:41;16.99;88.01
68257;DHT22;55069;51.568;4.656;2023-08-20T06:18:07;17.00;87.78
68257;DHT22;55069;51.568;4.656;2023-08-20T06:20:32;17.06;88.02
68257;DHT22;55069;51.568;4.656;2023-08-20T06:22:58;17.13;87.58
68257;DHT22;55069;51.568;4.656;2023-08-20T06:25:24;17.18;87.57
68257;DHT22;55069;51.568;4.656;2023-08-20T06:27:49;17.28;87.50
68257;DHT22;55069;51.568;4.656;2023-08-20T06:30:15;17.42;87.34
68257;DHT22;55069;51.568;4.656;2023-08-20T06:32:40;17.62;86.42
68257;DHT22;55069;51.568;4.656;2023-08-20T06:35:06;17.79;85.99
68257;DHT22;55069;51.568;4.656;2023-08-20T06:37:34;17.89;85.41
68257;DHT22;55069;51.568;4.656;2023-08-20T06:39:59;17.92;85.28
68257;DHT22;55069;51.568;4.656;2023-08-20T06:42:25;17.97;85.45
68257;DHT22;55069;51.568;4.656;2023-08-20T06:44:50;18.13;85.00
68257;DHT22;55069;51.568;4.656;2023-08-20T06:47:16;18.51;83.41
68257;DHT22;55069;51.568;4.656;2023-08-20T06:49:41;18.72;82.26
68257;DHT22;55069;51.568;4.656;2023-08-20T06:52:07;18.82;81.74
68257;DHT22;55069;51.568;4.656;2023-08-20T06:54:32;18.95;81.36
68257;DHT22;55069;51.568;4.656;2023-08-20T06:56:58;18.88;82.38
68257;DHT22;55069;51.568;4.656;2023-08-20T06:59:23;19.08;80.88
68257;DHT22;55069;51.568;4.656;2023-08-20T07:01:49;19.15;80.33
68257;DHT22;55069;51.568;4.656;2023-08-20T07:04:14;19.18;80.65
68257;DHT22;55069;51.568;4.656;2023-08-20T07:06:40;19.29;80.17
68257;DHT22;55069;51.568;4.656;2023-08-20T07:09:07;19.41;80.32
68257;DHT22;55069;51.568;4.656;2023-08-20T07:11:32;19.47;79.39
68257;DHT22;55069;51.568;4.656;2023-08-20T07:13:58;19.67;77.68
68257;DHT22;55069;51.568;4.656;2023-08-20T07:16:23;19.79;76.82
68257;DHT22;55069;51.568;4.656;2023-08-20T07:18:49;19.95;76.88
68257;DHT22;55069;51.568;4.656;2023-08-20T07:21:14;20.04;76.23
68257;DHT22;55069;51.568;4.656;2023-08-20T07:23:40;20.09;75.90
68257;DHT22;55069;51.568;4.656;2023-08-20T07:26:06;20.18;75.10
68257;DHT22;55069;51.568;4.656;2023-08-20T07:28:32;20.23;75.30
68257;DHT22;55069;51.568;4.656;2023-08-20T07:31:17;20.22;75.76
68257;DHT22;55069;51.568;4.656;2023-08-20T07:33:46;20.34;74.66
68257;DHT22;55069;51.568;4.656;2023-08-20T07:36:13;20.36;75.74
68257;DHT22;55069;51.568;4.656;2023-08-20T07:38:39;20.49;73.69
68257;DHT22;55069;51.568;4.656;2023-08-20T07:41:06;20.44;73.99
68257;DHT22;55069;51.568;4.656;2023-08-20T07:43:32;20.56;74.59
68257;DHT22;55069;51.568;4.656;2023-08-20T07:45:58;20.67;73.36
68257;DHT22;55069;51.568;4.656;2023-08-20T07:48:23;20.76;74.19
68257;DHT22;55069;51.568;4.656;2023-08-20T07:50:49;20.84;72.60
68257;DHT22;55069;51.568;4.656;2023-08-20T07:53:14;20.92;72.37
68257;DHT22;55069;51.568;4.656;2023-08-20T07:55:40;21.02;72.66
68257;DHT22;55069;51.568;4.656;2023-08-20T07:58:05;21.09;72.36
68257;DHT22;55069;51.568;4.656;2023-08-20T08:00:31;21.18;71.84
68257;DHT22;55069;51.568;4.656;2023-08-20T08:02:56;21.09;70.91
68257;DHT22;55069;51.568;4.656;2023-08-20T08:05:22;21.21;71.01
68257;DHT22;55069;51.568;4.656;2023-08-20T08:07:47;21.22;70.96
68257;DHT22;55069;51.568;4.656;2023-08-20T08:10:13;21.31;69.97
68257;DHT22;55069;51.568;4.656;2023-08-20T08:12:38;21.39;69.59
68257;DHT22;55069;51.568;4.656;2023-08-20T08:15:04;21.43;69.17
68257;DHT22;55069;51.568;4.656;2023-08-20T08:17:30;21.55;68.05
68257;DHT22;55069;51.568;4.656;2023-08-20T08:19:55;21.65;68.55
68257;DHT22;55069;51.568;4.656;2023-08-20T08:22:22;21.84;67.78
68257;DHT22;55069;51.568;4.656;2023-08-20T08:24:47;21.94;68.14
68257;DHT22;55069;51.568;4.656;2023-08-20T08:27:13;22.03;68.78
68257;DHT22;55069;51.568;4.656;2023-08-20T08:29:38;22.18;68.72
68257;DHT22;55069;51.568;4.656;2023-08-20T08:32:04;22.25;67.62
68257;DHT22;55069;51.568;4.656;2023-08-20T08:34:29;22.27;66.61
68257;DHT22;55069;51.568;4.656;2023-08-20T08:36:55;22.35;67.11
68257;DHT22;55069;51.568;4.656;2023-08-20T08:39:20;22.40;68.02
68257;DHT22;55069;51.568;4.656;2023-08-20T08:41:49;22.47;67.02
68257;DHT22;55069;51.568;4.656;2023-08-20T08:44:16;22.44;65.57
68257;DHT22;55069;51.568;4.656;2023-08-20T08:46:42;22.49;64.94
68257;DHT22;55069;51.568;4.656;2023-08-20T08:49:08;22.59;64.66
68257;DHT22;55069;51.568;4.656;2023-08-20T08:51:36;22.68;65.24
68257;DHT22;55069;51.568;4.656;2023-08-20T08:54:02;22.79;64.62
68257;DHT22;55069;51.568;4.656;2023-08-20T08:56:28;22.93;63.68
68257;DHT22;55069;51.568;4.656;2023-08-20T08:58:54;22.95;62.24
68257;DHT22;55069;51.568;4.656;2023-08-20T09:01:20;22.96;61.52
68257;DHT22;55069;51.568;4.656;2023-08-20T09:03:47;22.97;60.85
68257;DHT22;55069;51.568;4.656;2023-08-20T09:06:12;23.06;62.45
68257;DHT22;55069;51.568;4.656;2023-08-20T09:08:38;23.21;64.38
68257;DHT22;55069;51.568;4.656;2023-08-20T09:11:03;23.18;64.74
68257;DHT22;55069;51.568;4.656;2023-08-20T09:13:39;23.28;66.10
68257;DHT22;55069;51.568;4.656;2023-08-20T09:16:06;23.43;63.80
68257;DHT22;55069;51.568;4.656;2023-08-20T09:18:42;23.37;62.72
68257;DHT22;55069;51.568;4.656;2023-08-20T09:21:10;23.62;63.00
68257;DHT22;55069;51.568;4.656;2023-08-20T09:23:36;23.74;63.70
68257;DHT22;55069;51.568;4.656;2023-08-20T09:26:04;23.71;64.63
68257;DHT22;55069;51.568;4.656;2023-08-20T09:28:40;23.72;63.31
68257;DHT22;55069;51.568;4.656;2023-08-20T09:31:06;23.86;64.91
68257;DHT22;55069;51.568;4.656;2023-08-20T09:33:31;24.02;64.78
68257;DHT22;55069;51.568;4.656;2023-08-20T09:35:57;24.06;64.40
68257;DHT22;55069;51.568;4.656;2023-08-20T09:38:23;23.90;63.10
68257;DHT22;55069;51.568;4.656;2023-08-20T09:40:51;24.03;63.43
68257;DHT22;55069;51.568;4.656;2023-08-20T09:43:18;23.85;62.43
68257;DHT22;55069;51.568;4.656;2023-08-20T09:45:46;23.95;63.81
68257;DHT22;55069;51.568;4.656;2023-08-20T09:48:18;23.99;63.78
68257;DHT22;55069;51.568;4.656;2023-08-20T09:50:49;24.17;63.66
68257;DHT22;55069;51.568;4.656;2023-08-20T09:53:28;24.08;64.52
68257;DHT22;55069;51.568;4.656;2023-08-20T09:56:09;24.08;65.36
68257;DHT22;55069;51.568;4.656;2023-08-20T09:58:38;24.20;65.65
68257;DHT22;55069;51.568;4.656;2023-08-20T10:01:05;24.16;64.51
68257;DHT22;55069;51.568;4.656;2023-08-20T10:03:32;24.41;64.70
68257;DHT22;55069;51.568;4.656;2023-08-20T10:05:58;24.71;64.19
68257;DHT22;55069;51.568;4.656;2023-08-20T10:08:26;24.64;64.01
68257;DHT22;55069;51.568;4.656;2023-08-20T10:10:52;24.54;62.75
68257;DHT22;55069;51.568;4.656;2023-08-20T10:13:18;24.60;63.09
68257;DHT22;55069;51.568;4.656;2023-08-20T10:15:44;24.78;62.69
68257;DHT22;55069;51.568;4.656;2023-08-20T10:18:11;24.92;61.57
68257;DHT22;55069;51.568;4.656;2023-08-20T10:20:38;25.04;62.74
68257;DHT22;55069;51.568;4.656;2023-08-20T10:23:05;24.92;61.03
68257;DHT22;55069;51.568;4.656;2023-08-20T10:25:31;24.94;61.09
68257;DHT22;55069;51.568;4.656;2023-08-20T10:28:24;24.91;57.93
68257;DHT22;55069;51.568;4.656;2023-08-20T10:31:11;24.94;59.35
68257;DHT22;55069;51.568;4.656;2023-08-20T10:33:57;25.04;61.02
68257;DHT22;55069;51.568;4.656;2023-08-20T10:36:23;25.08;60.88
68257;DHT22;55069;51.568;4.656;2023-08-20T10:38:56;25.15;59.01
68257;DHT22;55069;51.568;4.656;2023-08-20T10:41:28;25.20;59.23
68257;DHT22;55069;51.568;4.656;2023-08-20T10:44:00;25.56;61.02
68257;DHT22;55069;51.568;4.656;2023-08-20T10:46:28;25.60;57.30
68257;DHT22;55069;51.568;4.656;2023-08-20T10:49:01;25.57;57.24
68257;DHT22;55069;51.568;4.656;2023-08-20T10:51:37;25.71;56.33
68257;DHT22;55069;51.568;4.656;2023-08-20T10:54:05;25.40;57.46
68257;DHT22;55069;51.568;4.656;2023-08-20T10:56:48;25.62;60.45
68257;DHT22;55069;51.568;4.656;2023-08-20T10:59:21;25.77;57.26
68257;DHT22;55069;51.568;4.656;2023-08-20T11:01:51;25.69;58.00
68257;DHT22;55069;51.568;4.656;2023-08-20T11:04:18;25.77;56.46
68257;DHT22;55069;51.568;4.656;2023-08-20T11:06:45;25.91;56.88
68257;DHT22;55069;51.568;4.656;2023-08-20T11:09:11;26.02;57.11
68257;DHT22;55069;51.568;4.656;2023-08-20T11:11:38;25.95;55.16
68257;DHT22;55069;51.568;4.656;2023-08-20T11:14:13;26.08;60.84
68257;DHT22;55069;51.568;4.656;2023-08-20T11:16:43;26.46;55.70
68257;DHT22;55069;51.568;4.656;2023-08-20T11:19:11;26.40;54.35
68257;DHT22;55069;51.568;4.656;2023-08-20T11:21:39;26.61;60.44
68257;DHT22;55069;51.568;4.656;2023-08-20T11:24:05;26.42;53.70
68257;DHT22;55069;51.568;4.656;2023-08-20T11:26:32;26.61;57.98
68257;DHT22;55069;51.568;4.656;2023-08-20T11:28:58;26.80;59.37
68257;DHT22;55069;51.568;4.656;2023-08-20T11:31:23;26.98;56.06
68257;DHT22;55069;51.568;4.656;2023-08-20T11:33:49;26.87;54.30
68257;DHT22;55069;51.568;4.656;2023-08-20T11:36:15;27.06;56.60
68257;DHT22;55069;51.568;4.656;2023-08-20T11:38:52;27.07;53.75
68257;DHT22;55069;51.568;4.656;2023-08-20T11:41:19;27.20;55.41
68257;DHT22;55069;51.568;4.656;2023-08-20T11:43:45;26.83;54.78
68257;DHT22;55069;51.568;4.656;2023-08-20T11:46:15;27.01;55.33
68257;DHT22;55069;51.568;4.656;2023-08-20T11:51:38;27.39;54.54
68257;DHT22;55069;51.568;4.656;2023-08-20T11:54:09;27.52;53.51
68257;DHT22;55069;51.568;4.656;2023-08-20T11:56:35;27.42;52.91
68257;DHT22;55069;51.568;4.656;2023-08-20T11:59:02;27.61;54.93
68257;DHT22;55069;51.568;4.656;2023-08-20T12:01:31;27.61;54.96
68257;DHT22;55069;51.568;4.656;2023-08-20T12:04:05;27.54;53.50
68257;DHT22;55069;51.568;4.656;2023-08-20T12:06:33;27.70;54.15
68257;DHT22;55069;51.568;4.656;2023-08-20T12:09:00;27.88;52.33
68257;DHT22;55069;51.568;4.656;2023-08-20T12:11:29;28.10;51.55
68257;DHT22;55069;51.568;4.656;2023-08-20T12:13:55;27.88;50.86
68257;DHT22;55069;51.568;4.656;2023-08-20T12:16:22;27.45;51.11
68257;DHT22;55069;51.568;4.656;2023-08-20T12:18:47;27.41;54.87
68257;DHT22;55069;51.568;4.656;2023-08-20T12:21:13;27.48;51.54
68257;DHT22;55069;51.568;4.656;2023-08-20T12:23:39;27.90;57.29
68257;DHT22;55069;51.568;4.656;2023-08-20T12:26:05;28.31;54.53
68257;DHT22;55069;51.568;4.656;2023-08-20T12:28:30;28.22;51.17
68257;DHT22;55069;51.568;4.656;2023-08-20T12:30:56;28.44;51.97
68257;DHT22;55069;51.568;4.656;2023-08-20T12:33:21;28.21;52.30
68257;DHT22;55069;51.568;4.656;2023-08-20T12:35:47;28.43;54.19
68257;DHT22;55069;51.568;4.656;2023-08-20T12:38:12;28.33;51.71
68257;DHT22;55069;51.568;4.656;2023-08-20T12:40:38;28.55;50.85
68257;DHT22;55069;51.568;4.656;2023-08-20T12:43:04;28.62;53.37
68257;DHT22;55069;51.568;4.656;2023-08-20T12:45:29;28.31;51.36
68257;DHT22;55069;51.568;4.656;2023-08-20T12:47:55;28.58;49.17
68257;DHT22;55069;51.568;4.656;2023-08-20T12:50:21;28.41;49.40
68257;DHT22;55069;51.568;4.656;2023-08-20T12:52:46;28.34;51.17
68257;DHT22;55069;51.568;4.656;2023-08-20T12:55:14;28.89;51.56
68257;DHT22;55069;51.568;4.656;2023-08-20T12:57:53;28.88;53.78
68257;DHT22;55069;51.568;4.656;2023-08-20T13:00:19;28.91;50.01
68257;DHT22;55069;51.568;4.656;2023-08-20T13:02:45;28.85;51.26
68257;DHT22;55069;51.568;4.656;2023-08-20T13:05:11;28.54;49.78
68257;DHT22;55069;51.568;4.656;2023-08-20T13:07:37;28.27;50.36
68257;DHT22;55069;51.568;4.656;2023-08-20T13:10:03;27.96;51.04
68257;DHT22;55069;51.568;4.656;2023-08-20T13:12:30;27.66;51.17
68257;DHT22;55069;51.568;4.656;2023-08-20T13:14:57;28.25;52.51
68257;DHT22;55069;51.568;4.656;2023-08-20T13:17:24;28.67;55.31
68257;DHT22;55069;51.568;4.656;2023-08-20T13:19:49;28.47;51.14
68257;DHT22;55069;51.568;4.656;2023-08-20T13:22:15;28.51;52.20
68257;DHT22;55069;51.568;4.656;2023-08-20T13:24:41;28.44;51.64
68257;DHT22;55069;51.568;4.656;2023-08-20T13:27:06;28.67;53.35
68257;DHT22;55069;51.568;4.656;2023-08-20T13:29:32;28.30;51.20
68257;DHT22;55069;51.568;4.656;2023-08-20T13:31:57;28.13;52.97
68257;DHT22;55069;51.568;4.656;2023-08-20T13:34:23;28.18;51.07
68257;DHT22;55069;51.568;4.656;2023-08-20T13:36:48;28.37;54.92
68257;DHT22;55069;51.568;4.656;2023-08-20T13:39:14;28.49;52.95
68257;DHT22;55069;51.568;4.656;2023-08-20T13:41:40;28.38;52.49
68257;DHT22;55069;51.568;4.656;2023-08-20T13:44:07;28.27;53.65
68257;DHT22;55069;51.568;4.656;2023-08-20T13:46:33;28.43;56.85
68257;DHT22;55069;51.568;4.656;2023-08-20T13:48:59;27.82;54.65
68257;DHT22;55069;51.568;4.656;2023-08-20T13:51:24;27.94;53.89
68257;DHT22;55069;51.568;4.656;2023-08-20T13:53:51;27.78;55.00
68257;DHT22;55069;51.568;4.656;2023-08-20T13:56:16;27.45;56.78
68257;DHT22;55069;51.568;4.656;2023-08-20T13:58:42;27.23;55.03
68257;DHT22;55069;51.568;4.656;2023-08-20T14:01:07;27.34;57.11
68257;DHT22;55069;51.568;4.656;2023-08-20T14:03:33;27.69;55.80
68257;DHT22;55069;51.568;4.656;2023-08-20T14:05:58;27.92;56.32
68257;DHT22;55069;51.568;4.656;2023-08-20T14:08:24;27.73;55.48
68257;DHT22;55069;51.568;4.656;2023-08-20T14:10:49;27.88;55.83
68257;DHT22;55069;51.568;4.656;2023-08-20T14:13:15;27.99;56.31
68257;DHT22;55069;51.568;4.656;2023-08-20T14:15:40;27.74;53.54
68257;DHT22;55069;51.568;4.656;2023-08-20T14:18:06;27.45;56.20
68257;DHT22;55069;51.568;4.656;2023-08-20T14:20:32;27.41;59.35
68257;DHT22;55069;51.568;4.656;2023-08-20T14:22:57;27.27;56.27
68257;DHT22;55069;51.568;4.656;2023-08-20T14:25:23;27.21;58.67
68257;DHT22;55069;51.568;4.656;2023-08-20T14:27:49;27.24;57.26
68257;DHT22;55069;51.568;4.656;2023-08-20T14:30:14;27.28;56.99
68257;DHT22;55069;51.568;4.656;2023-08-20T14:32:40;27.18;56.43
68257;DHT22;55069;51.568;4.656;2023-08-20T14:35:08;27.03;59.12
68257;DHT22;55069;51.568;4.656;2023-08-20T14:37:33;27.06;57.60
68257;DHT22;55069;51.568;4.656;2023-08-20T14:39:59;27.25;57.63
68257;DHT22;55069;51.568;4.656;2023-08-20T14:42:24;26.84;57.94
68257;DHT22;55069;51.568;4.656;2023-08-20T14:44:50;26.70;57.95
68257;DHT22;55069;51.568;4.656;2023-08-20T14:47:15;26.70;58.24
68257;DHT22;55069;51.568;4.656;2023-08-20T14:49:41;26.87;58.20
68257;DHT22;55069;51.568;4.656;2023-08-20T14:52:06;27.24;59.31
68257;DHT22;55069;51.568;4.656;2023-08-20T14:54:32;27.28;59.24
68257;DHT22;55069;51.568;4.656;2023-08-20T14:56:58;27.27;58.76
68257;DHT22;55069;51.568;4.656;2023-08-20T14:59:23;27.73;57.04
68257;DHT22;55069;51.568;4.656;2023-08-20T15:01:49;27.82;56.68
68257;DHT22;55069;51.568;4.656;2023-08-20T15:04:14;27.73;58.37
68257;DHT22;55069;51.568;4.656;2023-08-20T15:06:40;27.59;58.18
68257;DHT22;55069;51.568;4.656;2023-08-20T15:09:05;27.35;59.34
68257;DHT22;55069;51.568;4.656;2023-08-20T15:11:32;27.24;60.02
68257;DHT22;55069;51.568;4.656;2023-08-20T15:13:59;27.23;60.24
68257;DHT22;55069;51.568;4.656;2023-08-20T15:16:25;26.70;59.26
68257;DHT22;55069;51.568;4.656;2023-08-20T15:18:50;26.60;60.96
68257;DHT22;55069;51.568;4.656;2023-08-20T15:21:16;26.83;60.64
68257;DHT22;55069;51.568;4.656;2023-08-20T15:23:41;26.91;59.43
68257;DHT22;55069;51.568;4.656;2023-08-20T15:26:07;26.90;60.03
68257;DHT22;55069;51.568;4.656;2023-08-20T15:28:32;27.23;59.69
68257;DHT22;55069;51.568;4.656;2023-08-20T15:31:00;27.55;59.46
68257;DHT22;55069;51.568;4.656;2023-08-20T15:33:26;27.86;58.59
68257;DHT22;55069;51.568;4.656;2023-08-20T15:35:51;27.93;58.07
68257;DHT22;55069;51.568;4.656;2023-08-20T15:38:17;28.13;57.69
68257;DHT22;55069;51.568;4.656;2023-08-20T15:40:42;28.38;57.50
68257;DHT22;55069;51.568;4.656;2023-08-20T15:43:08;28.75;56.88